Amber, New York
Current Conditions -  °F | °C
As of 8:54 PM on Monday 20 Oct 2014 (Local Time) from KSYR Reporting Station
Light Rain Light Rain  
Wind Chill: 55°   Ceiling: 6000
Heat Index: 55°   Visibility: 10mi
Dew Point: 38°   Wind: 5mph
Humidity: 53%   Direction: 190°S
Pressure: 29.87"   Gusts: NA
Location:  42.889°N, 76.2819°W
Report Text: KSYR 210054Z 19004KT 10SM -RA SCT033 OVC060 13/03 A2987 RMK RAB42 SLP114 T01270032
Loading
Personal Weather Stations






























Interactive Weather Map
Tropical Storm Tracking
New forecast layout! Learn more

10-Day Weather Forecast

Advertisements
Track Severe Weather on mobile